sensor_id;sensor_type;location;lat;lon;timestamp;temperature;humidity
34406;DHT22;20658;45.630;8.886;2022-10-16T00:01:52;15.80;96.00
34406;DHT22;20658;45.630;8.886;2022-10-16T00:04:26;15.80;96.00
34406;DHT22;20658;45.630;8.886;2022-10-16T00:06:59;15.80;96.10
34406;DHT22;20658;45.630;8.886;2022-10-16T00:09:29;15.80;96.10
34406;DHT22;20658;45.630;8.886;2022-10-16T00:12:03;15.80;96.10
34406;DHT22;20658;45.630;8.886;2022-10-16T00:14:38;15.80;96.10
34406;DHT22;20658;45.630;8.886;2022-10-16T00:17:13;15.80;96.20
34406;DHT22;20658;45.630;8.886;2022-10-16T00:19:46;15.80;96.20
34406;DHT22;20658;45.630;8.886;2022-10-16T00:22:15;15.80;96.30
34406;DHT22;20658;45.630;8.886;2022-10-16T00:24:44;15.80;96.30
34406;DHT22;20658;45.630;8.886;2022-10-16T00:27:13;15.80;96.30
34406;DHT22;20658;45.630;8.886;2022-10-16T00:29:49;15.70;96.40
34406;DHT22;20658;45.630;8.886;2022-10-16T00:32:19;15.70;96.40
34406;DHT22;20658;45.630;8.886;2022-10-16T00:34:53;15.70;96.40
34406;DHT22;20658;45.630;8.886;2022-10-16T00:37:26;15.70;96.30
34406;DHT22;20658;45.630;8.886;2022-10-16T00:40:01;15.70;96.40
34406;DHT22;20658;45.630;8.886;2022-10-16T00:42:34;15.80;96.40
34406;DHT22;20658;45.630;8.886;2022-10-16T00:45:09;15.70;96.50
34406;DHT22;20658;45.630;8.886;2022-10-16T00:47:44;15.70;96.60
34406;DHT22;20658;45.630;8.886;2022-10-16T00:50:20;15.70;96.50
34406;DHT22;20658;45.630;8.886;2022-10-16T00:52:51;15.70;96.50
34406;DHT22;20658;45.630;8.886;2022-10-16T00:55:27;15.90;96.70
34406;DHT22;20658;45.630;8.886;2022-10-16T00:58:01;15.70;96.60
34406;DHT22;20658;45.630;8.886;2022-10-16T01:00:35;15.70;96.70
34406;DHT22;20658;45.630;8.886;2022-10-16T01:03:23;15.70;96.70
34406;DHT22;20658;45.630;8.886;2022-10-16T01:06:06;15.70;96.90
34406;DHT22;20658;45.630;8.886;2022-10-16T01:08:53;15.70;96.90
34406;DHT22;20658;45.630;8.886;2022-10-16T01:11:39;15.70;97.10
34406;DHT22;20658;45.630;8.886;2022-10-16T01:14:22;15.70;97.10
34406;DHT22;20658;45.630;8.886;2022-10-16T01:17:00;15.60;97.00
34406;DHT22;20658;45.630;8.886;2022-10-16T01:19:59;15.60;97.00
34406;DHT22;20658;45.630;8.886;2022-10-16T01:22:38;15.60;97.10
34406;DHT22;20658;45.630;8.886;2022-10-16T01:25:25;15.60;97.10
34406;DHT22;20658;45.630;8.886;2022-10-16T01:28:09;15.60;97.20
34406;DHT22;20658;45.630;8.886;2022-10-16T01:30:45;15.60;97.30
34406;DHT22;20658;45.630;8.886;2022-10-16T01:33:18;15.60;97.40
34406;DHT22;20658;45.630;8.886;2022-10-16T01:35:58;15.60;97.40
34406;DHT22;20658;45.630;8.886;2022-10-16T01:38:35;15.50;97.30
34406;DHT22;20658;45.630;8.886;2022-10-16T01:41:13;15.50;97.30
34406;DHT22;20658;45.630;8.886;2022-10-16T01:43:55;15.50;97.30
34406;DHT22;20658;45.630;8.886;2022-10-16T01:46:31;15.50;97.10
34406;DHT22;20658;45.630;8.886;2022-10-16T01:49:06;15.50;97.20
34406;DHT22;20658;45.630;8.886;2022-10-16T01:51:37;15.50;97.10
34406;DHT22;20658;45.630;8.886;2022-10-16T01:54:08;15.40;97.10
34406;DHT22;20658;45.630;8.886;2022-10-16T01:56:42;15.40;97.00
34406;DHT22;20658;45.630;8.886;2022-10-16T01:59:20;15.40;97.10
34406;DHT22;20658;45.630;8.886;2022-10-16T02:01:54;15.40;97.20
34406;DHT22;20658;45.630;8.886;2022-10-16T02:04:31;15.40;97.20
34406;DHT22;20658;45.630;8.886;2022-10-16T02:07:07;15.40;97.20
34406;DHT22;20658;45.630;8.886;2022-10-16T02:09:40;15.40;97.10
34406;DHT22;20658;45.630;8.886;2022-10-16T02:12:13;15.40;97.00
34406;DHT22;20658;45.630;8.886;2022-10-16T02:14:44;15.40;97.00
34406;DHT22;20658;45.630;8.886;2022-10-16T02:17:18;15.40;96.90
34406;DHT22;20658;45.630;8.886;2022-10-16T02:19:54;15.40;97.00
34406;DHT22;20658;45.630;8.886;2022-10-16T02:22:27;15.40;96.90
34406;DHT22;20658;45.630;8.886;2022-10-16T02:25:01;15.40;96.90
34406;DHT22;20658;45.630;8.886;2022-10-16T02:27:43;15.30;96.90
34406;DHT22;20658;45.630;8.886;2022-10-16T02:30:28;15.40;96.90
34406;DHT22;20658;45.630;8.886;2022-10-16T02:33:07;15.40;97.00
34406;DHT22;20658;45.630;8.886;2022-10-16T02:35:43;15.40;97.00
34406;DHT22;20658;45.630;8.886;2022-10-16T02:38:18;15.40;97.00
34406;DHT22;20658;45.630;8.886;2022-10-16T02:40:52;15.40;96.90
34406;DHT22;20658;45.630;8.886;2022-10-16T02:43:25;15.40;96.90
34406;DHT22;20658;45.630;8.886;2022-10-16T02:46:00;15.40;96.80
34406;DHT22;20658;45.630;8.886;2022-10-16T02:48:29;15.40;96.90
34406;DHT22;20658;45.630;8.886;2022-10-16T02:51:03;15.40;96.90
34406;DHT22;20658;45.630;8.886;2022-10-16T02:53:36;15.40;96.90
34406;DHT22;20658;45.630;8.886;2022-10-16T02:56:10;15.40;97.00
34406;DHT22;20658;45.630;8.886;2022-10-16T02:58:43;15.40;97.00
34406;DHT22;20658;45.630;8.886;2022-10-16T03:01:18;15.40;97.00
34406;DHT22;20658;45.630;8.886;2022-10-16T03:03:51;15.40;96.90
34406;DHT22;20658;45.630;8.886;2022-10-16T03:06:24;15.40;97.00
34406;DHT22;20658;45.630;8.886;2022-10-16T03:08:58;15.80;97.30
34406;DHT22;20658;45.630;8.886;2022-10-16T03:11:32;15.50;97.30
34406;DHT22;20658;45.630;8.886;2022-10-16T03:14:05;15.40;97.20
34406;DHT22;20658;45.630;8.886;2022-10-16T03:16:35;15.40;97.30
34406;DHT22;20658;45.630;8.886;2022-10-16T03:19:03;15.70;97.50
34406;DHT22;20658;45.630;8.886;2022-10-16T03:21:37;15.40;97.50
34406;DHT22;20658;45.630;8.886;2022-10-16T03:24:10;15.40;97.60
34406;DHT22;20658;45.630;8.886;2022-10-16T03:26:44;15.40;97.50
34406;DHT22;20658;45.630;8.886;2022-10-16T03:29:12;15.40;97.50
34406;DHT22;20658;45.630;8.886;2022-10-16T03:31:47;15.80;97.80
34406;DHT22;20658;45.630;8.886;2022-10-16T03:34:16;15.40;97.60
34406;DHT22;20658;45.630;8.886;2022-10-16T03:36:44;15.40;97.50
34406;DHT22;20658;45.630;8.886;2022-10-16T03:39:13;15.30;97.70
34406;DHT22;20658;45.630;8.886;2022-10-16T03:41:42;15.40;97.70
34406;DHT22;20658;45.630;8.886;2022-10-16T03:44:15;15.40;97.70
34406;DHT22;20658;45.630;8.886;2022-10-16T03:46:50;15.40;97.70
34406;DHT22;20658;45.630;8.886;2022-10-16T03:49:23;15.30;97.70
34406;DHT22;20658;45.630;8.886;2022-10-16T03:51:52;15.30;97.80
34406;DHT22;20658;45.630;8.886;2022-10-16T03:54:25;15.30;97.80
34406;DHT22;20658;45.630;8.886;2022-10-16T03:56:58;15.30;97.90
34406;DHT22;20658;45.630;8.886;2022-10-16T03:59:32;15.70;98.00
34406;DHT22;20658;45.630;8.886;2022-10-16T04:02:07;15.30;97.90
34406;DHT22;20658;45.630;8.886;2022-10-16T04:04:36;15.30;97.90
34406;DHT22;20658;45.630;8.886;2022-10-16T04:07:04;15.30;97.80
34406;DHT22;20658;45.630;8.886;2022-10-16T04:09:32;15.30;97.70
34406;DHT22;20658;45.630;8.886;2022-10-16T04:12:06;15.30;97.60
34406;DHT22;20658;45.630;8.886;2022-10-16T04:14:35;15.30;97.60
34406;DHT22;20658;45.630;8.886;2022-10-16T04:17:03;15.30;97.60
34406;DHT22;20658;45.630;8.886;2022-10-16T04:19:33;15.40;97.60
34406;DHT22;20658;45.630;8.886;2022-10-16T04:22:01;15.40;97.60
34406;DHT22;20658;45.630;8.886;2022-10-16T04:24:29;15.40;97.70
34406;DHT22;20658;45.630;8.886;2022-10-16T04:27:03;15.40;97.60
34406;DHT22;20658;45.630;8.886;2022-10-16T04:29:31;15.30;97.60
34406;DHT22;20658;45.630;8.886;2022-10-16T04:32:00;15.30;97.60
34406;DHT22;20658;45.630;8.886;2022-10-16T04:34:28;15.40;97.60
34406;DHT22;20658;45.630;8.886;2022-10-16T04:36:58;15.40;97.60
34406;DHT22;20658;45.630;8.886;2022-10-16T04:39:31;15.40;97.70
34406;DHT22;20658;45.630;8.886;2022-10-16T04:42:04;15.40;97.80
34406;DHT22;20658;45.630;8.886;2022-10-16T04:44:34;15.30;97.90
34406;DHT22;20658;45.630;8.886;2022-10-16T04:47:08;15.40;97.90
34406;DHT22;20658;45.630;8.886;2022-10-16T04:49:41;15.40;97.90
34406;DHT22;20658;45.630;8.886;2022-10-16T04:52:16;15.40;97.90
34406;DHT22;20658;45.630;8.886;2022-10-16T04:54:50;15.40;97.90
34406;DHT22;20658;45.630;8.886;2022-10-16T04:57:23;15.40;97.90
34406;DHT22;20658;45.630;8.886;2022-10-16T04:59:52;15.40;97.90
34406;DHT22;20658;45.630;8.886;2022-10-16T05:02:26;15.30;97.90
34406;DHT22;20658;45.630;8.886;2022-10-16T05:04:59;15.40;97.90
34406;DHT22;20658;45.630;8.886;2022-10-16T05:07:34;15.40;98.00
34406;DHT22;20658;45.630;8.886;2022-10-16T05:10:07;15.40;98.00
34406;DHT22;20658;45.630;8.886;2022-10-16T05:12:41;15.40;98.00
34406;DHT22;20658;45.630;8.886;2022-10-16T05:15:15;15.40;98.10
34406;DHT22;20658;45.630;8.886;2022-10-16T05:17:52;15.30;98.20
34406;DHT22;20658;45.630;8.886;2022-10-16T05:20:26;15.60;98.30
34406;DHT22;20658;45.630;8.886;2022-10-16T05:22:56;15.30;98.10
34406;DHT22;20658;45.630;8.886;2022-10-16T05:25:24;15.40;98.00
34406;DHT22;20658;45.630;8.886;2022-10-16T05:27:57;15.40;98.30
34406;DHT22;20658;45.630;8.886;2022-10-16T05:30:31;15.30;98.50
34406;DHT22;20658;45.630;8.886;2022-10-16T05:33:04;15.30;98.50
34406;DHT22;20658;45.630;8.886;2022-10-16T05:35:37;15.40;98.50
34406;DHT22;20658;45.630;8.886;2022-10-16T05:38:13;15.30;98.40
34406;DHT22;20658;45.630;8.886;2022-10-16T05:40:50;15.30;98.60
34406;DHT22;20658;45.630;8.886;2022-10-16T05:43:19;15.40;98.50
34406;DHT22;20658;45.630;8.886;2022-10-16T05:45:56;15.40;98.50
34406;DHT22;20658;45.630;8.886;2022-10-16T05:48:30;15.30;98.60
34406;DHT22;20658;45.630;8.886;2022-10-16T05:51:06;15.40;98.70
34406;DHT22;20658;45.630;8.886;2022-10-16T05:53:38;15.30;98.80
34406;DHT22;20658;45.630;8.886;2022-10-16T05:56:09;15.40;98.80
34406;DHT22;20658;45.630;8.886;2022-10-16T05:58:43;15.40;98.80
34406;DHT22;20658;45.630;8.886;2022-10-16T06:01:14;15.40;98.80
34406;DHT22;20658;45.630;8.886;2022-10-16T06:03:49;15.40;98.90
34406;DHT22;20658;45.630;8.886;2022-10-16T06:06:24;15.40;98.80
34406;DHT22;20658;45.630;8.886;2022-10-16T06:08:55;15.40;98.90
34406;DHT22;20658;45.630;8.886;2022-10-16T06:11:30;15.40;98.90
34406;DHT22;20658;45.630;8.886;2022-10-16T06:14:05;15.50;99.10
34406;DHT22;20658;45.630;8.886;2022-10-16T06:16:39;15.50;99.20
34406;DHT22;20658;45.630;8.886;2022-10-16T06:19:07;15.50;99.20
34406;DHT22;20658;45.630;8.886;2022-10-16T06:21:41;15.50;99.20
34406;DHT22;20658;45.630;8.886;2022-10-16T06:24:15;15.50;99.10
34406;DHT22;20658;45.630;8.886;2022-10-16T06:26:49;15.50;99.10
34406;DHT22;20658;45.630;8.886;2022-10-16T06:29:22;15.60;99.10
34406;DHT22;20658;45.630;8.886;2022-10-16T06:31:56;15.60;98.90
34406;DHT22;20658;45.630;8.886;2022-10-16T06:34:29;15.60;98.80
34406;DHT22;20658;45.630;8.886;2022-10-16T06:37:02;15.70;98.70
34406;DHT22;20658;45.630;8.886;2022-10-16T06:39:37;15.70;98.50
34406;DHT22;20658;45.630;8.886;2022-10-16T06:42:10;15.80;98.30
34406;DHT22;20658;45.630;8.886;2022-10-16T06:44:44;15.80;98.10
34406;DHT22;20658;45.630;8.886;2022-10-16T06:47:18;15.90;98.10
34406;DHT22;20658;45.630;8.886;2022-10-16T06:49:51;15.90;97.90
34406;DHT22;20658;45.630;8.886;2022-10-16T06:52:24;16.00;97.60
34406;DHT22;20658;45.630;8.886;2022-10-16T06:55:02;16.00;97.60
34406;DHT22;20658;45.630;8.886;2022-10-16T06:57:36;16.10;97.50
34406;DHT22;20658;45.630;8.886;2022-10-16T07:00:10;16.10;97.00
34406;DHT22;20658;45.630;8.886;2022-10-16T07:02:43;16.20;96.70
34406;DHT22;20658;45.630;8.886;2022-10-16T07:05:17;16.50;96.90
34406;DHT22;20658;45.630;8.886;2022-10-16T07:07:50;16.30;96.60
34406;DHT22;20658;45.630;8.886;2022-10-16T07:10:25;16.30;96.40
34406;DHT22;20658;45.630;8.886;2022-10-16T07:12:58;16.30;96.20
34406;DHT22;20658;45.630;8.886;2022-10-16T07:15:31;16.30;96.10
34406;DHT22;20658;45.630;8.886;2022-10-16T07:18:05;16.30;96.20
34406;DHT22;20658;45.630;8.886;2022-10-16T07:20:38;16.40;96.00
34406;DHT22;20658;45.630;8.886;2022-10-16T07:23:12;16.40;95.70
34406;DHT22;20658;45.630;8.886;2022-10-16T07:25:53;16.50;95.70
34406;DHT22;20658;45.630;8.886;2022-10-16T07:28:28;16.50;95.70
34406;DHT22;20658;45.630;8.886;2022-10-16T07:31:02;16.60;95.60
34406;DHT22;20658;45.630;8.886;2022-10-16T07:33:31;16.60;95.60
34406;DHT22;20658;45.630;8.886;2022-10-16T07:36:01;16.60;95.50
34406;DHT22;20658;45.630;8.886;2022-10-16T07:38:34;16.70;95.50
34406;DHT22;20658;45.630;8.886;2022-10-16T07:41:10;16.80;95.30
34406;DHT22;20658;45.630;8.886;2022-10-16T07:43:40;16.80;95.30
34406;DHT22;20658;45.630;8.886;2022-10-16T07:46:19;16.90;95.10
34406;DHT22;20658;45.630;8.886;2022-10-16T07:48:55;16.90;94.80
34406;DHT22;20658;45.630;8.886;2022-10-16T07:51:28;17.00;94.50
34406;DHT22;20658;45.630;8.886;2022-10-16T07:54:02;17.10;93.90
34406;DHT22;20658;45.630;8.886;2022-10-16T07:56:36;17.30;93.60
34406;DHT22;20658;45.630;8.886;2022-10-16T07:59:10;17.40;92.70
34406;DHT22;20658;45.630;8.886;2022-10-16T08:01:43;17.40;92.30
34406;DHT22;20658;45.630;8.886;2022-10-16T08:04:17;17.60;92.00
34406;DHT22;20658;45.630;8.886;2022-10-16T08:06:50;17.70;91.60
34406;DHT22;20658;45.630;8.886;2022-10-16T08:09:24;17.80;91.00
34406;DHT22;20658;45.630;8.886;2022-10-16T08:11:58;17.80;90.20
34406;DHT22;20658;45.630;8.886;2022-10-16T08:14:32;17.80;90.20
34406;DHT22;20658;45.630;8.886;2022-10-16T08:17:05;17.90;90.60
34406;DHT22;20658;45.630;8.886;2022-10-16T08:19:39;17.70;90.10
34406;DHT22;20658;45.630;8.886;2022-10-16T08:22:12;17.80;90.50
34406;DHT22;20658;45.630;8.886;2022-10-16T08:24:46;17.90;90.60
34406;DHT22;20658;45.630;8.886;2022-10-16T08:27:16;17.90;90.70
34406;DHT22;20658;45.630;8.886;2022-10-16T08:29:49;17.90;90.20
34406;DHT22;20658;45.630;8.886;2022-10-16T08:32:23;18.00;90.00
34406;DHT22;20658;45.630;8.886;2022-10-16T08:34:56;18.00;89.70
34406;DHT22;20658;45.630;8.886;2022-10-16T08:37:30;18.00;90.00
34406;DHT22;20658;45.630;8.886;2022-10-16T08:40:06;18.10;89.70
34406;DHT22;20658;45.630;8.886;2022-10-16T08:43:05;18.20;89.70
34406;DHT22;20658;45.630;8.886;2022-10-16T08:46:04;18.20;89.60
34406;DHT22;20658;45.630;8.886;2022-10-16T08:48:50;18.30;89.70
34406;DHT22;20658;45.630;8.886;2022-10-16T08:51:26;18.30;89.30
34406;DHT22;20658;45.630;8.886;2022-10-16T08:54:03;18.40;89.30
34406;DHT22;20658;45.630;8.886;2022-10-16T08:56:37;18.40;88.80
34406;DHT22;20658;45.630;8.886;2022-10-16T08:59:14;18.40;89.20
34406;DHT22;20658;45.630;8.886;2022-10-16T09:01:50;18.50;89.20
34406;DHT22;20658;45.630;8.886;2022-10-16T09:04:48;18.40;88.90
34406;DHT22;20658;45.630;8.886;2022-10-16T09:07:32;18.40;89.30
34406;DHT22;20658;45.630;8.886;2022-10-16T09:10:24;18.40;89.20
34406;DHT22;20658;45.630;8.886;2022-10-16T09:13:12;18.40;89.20
34406;DHT22;20658;45.630;8.886;2022-10-16T09:15:54;18.40;89.10
34406;DHT22;20658;45.630;8.886;2022-10-16T09:18:39;18.40;89.10
34406;DHT22;20658;45.630;8.886;2022-10-16T09:21:15;18.40;89.80
34406;DHT22;20658;45.630;8.886;2022-10-16T09:23:51;18.50;89.40
34406;DHT22;20658;45.630;8.886;2022-10-16T09:26:24;18.40;89.20
34406;DHT22;20658;45.630;8.886;2022-10-16T09:28:58;18.40;89.50
34406;DHT22;20658;45.630;8.886;2022-10-16T09:31:36;18.50;89.70
34406;DHT22;20658;45.630;8.886;2022-10-16T09:34:16;18.40;89.10
34406;DHT22;20658;45.630;8.886;2022-10-16T09:36:54;18.50;89.10
34406;DHT22;20658;45.630;8.886;2022-10-16T09:39:29;18.50;89.30
34406;DHT22;20658;45.630;8.886;2022-10-16T09:42:04;18.40;88.90
34406;DHT22;20658;45.630;8.886;2022-10-16T09:44:38;18.40;89.40
34406;DHT22;20658;45.630;8.886;2022-10-16T09:47:16;18.40;89.70
34406;DHT22;20658;45.630;8.886;2022-10-16T09:49:54;18.40;90.40
34406;DHT22;20658;45.630;8.886;2022-10-16T09:52:30;18.40;91.10
34406;DHT22;20658;45.630;8.886;2022-10-16T09:55:14;18.50;91.50
34406;DHT22;20658;45.630;8.886;2022-10-16T09:57:49;18.40;90.90
34406;DHT22;20658;45.630;8.886;2022-10-16T10:00:18;18.40;91.10
34406;DHT22;20658;45.630;8.886;2022-10-16T10:02:54;18.40;91.40
34406;DHT22;20658;45.630;8.886;2022-10-16T10:05:29;18.50;91.20
34406;DHT22;20658;45.630;8.886;2022-10-16T10:08:03;18.60;90.30
34406;DHT22;20658;45.630;8.886;2022-10-16T10:10:42;18.80;89.60
34406;DHT22;20658;45.630;8.886;2022-10-16T10:13:19;18.90;89.20
34406;DHT22;20658;45.630;8.886;2022-10-16T10:15:54;19.00;88.50
34406;DHT22;20658;45.630;8.886;2022-10-16T10:18:29;19.10;87.60
34406;DHT22;20658;45.630;8.886;2022-10-16T10:21:03;19.10;86.90
34406;DHT22;20658;45.630;8.886;2022-10-16T10:23:37;19.20;86.60
34406;DHT22;20658;45.630;8.886;2022-10-16T10:26:16;19.30;86.00
34406;DHT22;20658;45.630;8.886;2022-10-16T10:28:56;19.30;85.40
34406;DHT22;20658;45.630;8.886;2022-10-16T10:31:36;19.30;86.00
34406;DHT22;20658;45.630;8.886;2022-10-16T10:34:39;19.40;85.90
34406;DHT22;20658;45.630;8.886;2022-10-16T10:37:36;19.60;85.20
34406;DHT22;20658;45.630;8.886;2022-10-16T10:40:30;19.80;84.50
34406;DHT22;20658;45.630;8.886;2022-10-16T10:43:23;20.10;82.70
34406;DHT22;20658;45.630;8.886;2022-10-16T10:46:04;20.30;80.60
34406;DHT22;20658;45.630;8.886;2022-10-16T10:49:11;20.50;78.90
34406;DHT22;20658;45.630;8.886;2022-10-16T10:51:58;20.80;79.70
34406;DHT22;20658;45.630;8.886;2022-10-16T10:54:40;21.00;78.40
34406;DHT22;20658;45.630;8.886;2022-10-16T10:57:22;21.60;77.10
34406;DHT22;20658;45.630;8.886;2022-10-16T11:00:13;21.20;76.10
34406;DHT22;20658;45.630;8.886;2022-10-16T11:02:57;21.40;75.50
34406;DHT22;20658;45.630;8.886;2022-10-16T11:05:41;21.60;74.00
34406;DHT22;20658;45.630;8.886;2022-10-16T11:08:18;21.70;73.40
34406;DHT22;20658;45.630;8.886;2022-10-16T11:10:57;21.80;72.60
34406;DHT22;20658;45.630;8.886;2022-10-16T11:13:36;21.60;71.70
34406;DHT22;20658;45.630;8.886;2022-10-16T11:16:16;21.60;72.50
34406;DHT22;20658;45.630;8.886;2022-10-16T11:18:56;21.70;71.50
34406;DHT22;20658;45.630;8.886;2022-10-16T11:21:39;21.90;71.50
34406;DHT22;20658;45.630;8.886;2022-10-16T11:24:23;22.00;70.70
34406;DHT22;20658;45.630;8.886;2022-10-16T11:27:04;22.00;69.80
34406;DHT22;20658;45.630;8.886;2022-10-16T11:29:46;22.10;70.30
34406;DHT22;20658;45.630;8.886;2022-10-16T11:32:27;22.00;69.90
34406;DHT22;20658;45.630;8.886;2022-10-16T11:35:11;22.10;70.30
34406;DHT22;20658;45.630;8.886;2022-10-16T11:37:51;22.20;69.10
34406;DHT22;20658;45.630;8.886;2022-10-16T11:40:30;22.40;68.60
34406;DHT22;20658;45.630;8.886;2022-10-16T11:43:12;22.60;67.80
34406;DHT22;20658;45.630;8.886;2022-10-16T11:45:51;22.70;67.30
34406;DHT22;20658;45.630;8.886;2022-10-16T11:48:31;22.60;67.50
34406;DHT22;20658;45.630;8.886;2022-10-16T11:51:16;22.40;67.60
34406;DHT22;20658;45.630;8.886;2022-10-16T11:53:57;22.60;68.30
34406;DHT22;20658;45.630;8.886;2022-10-16T11:56:38;22.80;68.10
34406;DHT22;20658;45.630;8.886;2022-10-16T11:59:19;23.00;66.90
34406;DHT22;20658;45.630;8.886;2022-10-16T12:02:03;23.00;66.30
34406;DHT22;20658;45.630;8.886;2022-10-16T12:04:53;23.20;66.30
34406;DHT22;20658;45.630;8.886;2022-10-16T12:07:37;23.20;65.50
34406;DHT22;20658;45.630;8.886;2022-10-16T12:10:21;23.20;65.70
34406;DHT22;20658;45.630;8.886;2022-10-16T12:12:56;22.90;66.00
34406;DHT22;20658;45.630;8.886;2022-10-16T12:15:33;22.80;65.90
34406;DHT22;20658;45.630;8.886;2022-10-16T12:18:20;22.90;65.60
34406;DHT22;20658;45.630;8.886;2022-10-16T12:20:55;22.90;65.80
34406;DHT22;20658;45.630;8.886;2022-10-16T12:23:31;23.20;65.10
34406;DHT22;20658;45.630;8.886;2022-10-16T12:26:06;23.20;63.50
34406;DHT22;20658;45.630;8.886;2022-10-16T12:28:40;23.10;64.30
34406;DHT22;20658;45.630;8.886;2022-10-16T12:31:13;23.20;63.40
34406;DHT22;20658;45.630;8.886;2022-10-16T12:33:57;23.10;63.60
34406;DHT22;20658;45.630;8.886;2022-10-16T12:36:33;23.10;63.60
34406;DHT22;20658;45.630;8.886;2022-10-16T12:39:20;23.30;63.90
34406;DHT22;20658;45.630;8.886;2022-10-16T12:42:05;23.40;63.70
34406;DHT22;20658;45.630;8.886;2022-10-16T12:44:50;23.20;62.20
34406;DHT22;20658;45.630;8.886;2022-10-16T12:47:36;23.30;63.10
34406;DHT22;20658;45.630;8.886;2022-10-16T12:50:25;23.40;62.10
34406;DHT22;20658;45.630;8.886;2022-10-16T12:53:18;23.40;62.80
34406;DHT22;20658;45.630;8.886;2022-10-16T12:56:02;23.40;62.40
34406;DHT22;20658;45.630;8.886;2022-10-16T12:58:48;23.50;62.30
34406;DHT22;20658;45.630;8.886;2022-10-16T13:01:41;23.50;61.50
34406;DHT22;20658;45.630;8.886;2022-10-16T13:07:59;23.50;61.10
34406;DHT22;20658;45.630;8.886;2022-10-16T13:10:42;23.40;60.70
34406;DHT22;20658;45.630;8.886;2022-10-16T13:13:50;23.60;61.30
34406;DHT22;20658;45.630;8.886;2022-10-16T13:16:49;23.70;60.40
34406;DHT22;20658;45.630;8.886;2022-10-16T13:19:29;23.50;60.90
34406;DHT22;20658;45.630;8.886;2022-10-16T13:22:13;23.60;60.60
34406;DHT22;20658;45.630;8.886;2022-10-16T13:24:52;23.70;60.60
34406;DHT22;20658;45.630;8.886;2022-10-16T13:27:40;23.70;60.30
34406;DHT22;20658;45.630;8.886;2022-10-16T13:30:21;23.60;60.80
34406;DHT22;20658;45.630;8.886;2022-10-16T13:32:58;23.70;61.00
34406;DHT22;20658;45.630;8.886;2022-10-16T13:35:35;23.70;60.80
34406;DHT22;20658;45.630;8.886;2022-10-16T13:38:13;23.70;60.90
34406;DHT22;20658;45.630;8.886;2022-10-16T13:40:51;23.60;60.80
34406;DHT22;20658;45.630;8.886;2022-10-16T13:43:28;23.50;61.00
34406;DHT22;20658;45.630;8.886;2022-10-16T13:46:10;23.60;60.80
34406;DHT22;20658;45.630;8.886;2022-10-16T13:48:56;23.60;60.90
34406;DHT22;20658;45.630;8.886;2022-10-16T13:51:31;23.60;60.90
34406;DHT22;20658;45.630;8.886;2022-10-16T13:54:07;23.60;60.80
34406;DHT22;20658;45.630;8.886;2022-10-16T13:56:42;23.40;60.10
34406;DHT22;20658;45.630;8.886;2022-10-16T13:59:26;23.50;60.80
34406;DHT22;20658;45.630;8.886;2022-10-16T14:02:14;23.60;61.70
34406;DHT22;20658;45.630;8.886;2022-10-16T14:04:53;23.60;61.00
34406;DHT22;20658;45.630;8.886;2022-10-16T14:07:28;23.50;60.90
34406;DHT22;20658;45.630;8.886;2022-10-16T14:10:05;23.40;61.00
34406;DHT22;20658;45.630;8.886;2022-10-16T14:12:39;23.40;61.30
34406;DHT22;20658;45.630;8.886;2022-10-16T14:15:17;23.50;61.40
34406;DHT22;20658;45.630;8.886;2022-10-16T14:17:56;23.40;60.80
34406;DHT22;20658;45.630;8.886;2022-10-16T14:20:32;23.40;61.10
34406;DHT22;20658;45.630;8.886;2022-10-16T14:23:20;23.40;61.50
34406;DHT22;20658;45.630;8.886;2022-10-16T14:26:15;23.50;61.50
34406;DHT22;20658;45.630;8.886;2022-10-16T14:29:03;23.60;61.20
34406;DHT22;20658;45.630;8.886;2022-10-16T14:31:54;23.50;61.10
34406;DHT22;20658;45.630;8.886;2022-10-16T14:34:32;23.40;61.00
34406;DHT22;20658;45.630;8.886;2022-10-16T14:37:09;23.50;61.40
34406;DHT22;20658;45.630;8.886;2022-10-16T14:39:57;23.50;61.40
34406;DHT22;20658;45.630;8.886;2022-10-16T14:42:25;23.50;61.30
34406;DHT22;20658;45.630;8.886;2022-10-16T14:44:59;23.60;61.20
34406;DHT22;20658;45.630;8.886;2022-10-16T14:47:32;23.60;60.70
34406;DHT22;20658;45.630;8.886;2022-10-16T14:50:09;23.50;61.10
34406;DHT22;20658;45.630;8.886;2022-10-16T14:52:42;23.40;61.70
34406;DHT22;20658;45.630;8.886;2022-10-16T14:55:16;23.40;61.70
34406;DHT22;20658;45.630;8.886;2022-10-16T14:57:50;23.30;62.20
34406;DHT22;20658;45.630;8.886;2022-10-16T15:00:24;23.30;62.20
34406;DHT22;20658;45.630;8.886;2022-10-16T15:02:57;23.30;62.10
34406;DHT22;20658;45.630;8.886;2022-10-16T15:05:32;23.10;62.70
34406;DHT22;20658;45.630;8.886;2022-10-16T15:08:06;23.10;62.90
34406;DHT22;20658;45.630;8.886;2022-10-16T15:10:41;23.00;62.70
34406;DHT22;20658;45.630;8.886;2022-10-16T15:13:15;23.00;63.00
34406;DHT22;20658;45.630;8.886;2022-10-16T15:15:49;22.80;63.70
34406;DHT22;20658;45.630;8.886;2022-10-16T15:18:22;22.80;63.80
34406;DHT22;20658;45.630;8.886;2022-10-16T15:20:58;22.70;63.80
34406;DHT22;20658;45.630;8.886;2022-10-16T15:23:31;22.60;64.30
34406;DHT22;20658;45.630;8.886;2022-10-16T15:26:04;22.60;64.50
34406;DHT22;20658;45.630;8.886;2022-10-16T15:28:38;22.50;64.80
34406;DHT22;20658;45.630;8.886;2022-10-16T15:31:11;22.40;65.40
34406;DHT22;20658;45.630;8.886;2022-10-16T15:33:40;22.40;65.40
34406;DHT22;20658;45.630;8.886;2022-10-16T15:36:15;22.30;65.70
34406;DHT22;20658;45.630;8.886;2022-10-16T15:38:48;22.30;65.80
34406;DHT22;20658;45.630;8.886;2022-10-16T15:41:22;22.10;66.30
34406;DHT22;20658;45.630;8.886;2022-10-16T15:43:55;22.00;67.00
34406;DHT22;20658;45.630;8.886;2022-10-16T15:46:29;21.90;67.60
34406;DHT22;20658;45.630;8.886;2022-10-16T15:49:05;21.80;67.80
34406;DHT22;20658;45.630;8.886;2022-10-16T15:51:41;21.70;68.00
34406;DHT22;20658;45.630;8.886;2022-10-16T15:54:14;21.70;68.70
34406;DHT22;20658;45.630;8.886;2022-10-16T15:56:48;21.70;68.90
34406;DHT22;20658;45.630;8.886;2022-10-16T15:59:21;21.60;69.00
34406;DHT22;20658;45.630;8.886;2022-10-16T16:01:54;21.50;69.30
34406;DHT22;20658;45.630;8.886;2022-10-16T16:04:30;21.50;69.70
34406;DHT22;20658;45.630;8.886;2022-10-16T16:07:05;21.40;70.00
34406;DHT22;20658;45.630;8.886;2022-10-16T16:09:39;21.40;70.60
34406;DHT22;20658;45.630;8.886;2022-10-16T16:12:12;21.20;71.00
34406;DHT22;20658;45.630;8.886;2022-10-16T16:14:45;21.20;71.50
34406;DHT22;20658;45.630;8.886;2022-10-16T16:17:20;21.10;71.90
34406;DHT22;20658;45.630;8.886;2022-10-16T16:19:54;21.00;72.20
34406;DHT22;20658;45.630;8.886;2022-10-16T16:22:28;20.90;72.40
34406;DHT22;20658;45.630;8.886;2022-10-16T16:25:03;20.80;72.90
34406;DHT22;20658;45.630;8.886;2022-10-16T16:27:36;20.70;73.50
34406;DHT22;20658;45.630;8.886;2022-10-16T16:30:11;20.60;73.70
34406;DHT22;20658;45.630;8.886;2022-10-16T16:32:44;20.50;74.30